Chain of Rocks, Missouri
Current Conditions -  °F | °C
As of 9:54 PM on Sunday 23 Nov 2014 (Local Time) from KSET Reporting Station
Moderate Fog Moderate Fog  
Wind Chill: 10°   Ceiling: 300
Heat Index: 10°   Visibility: 0.5mi
Dew Point: 10°   Wind: 3mph
Humidity: 100%   Direction: 200°SSW
Pressure: 29.24"   Gusts: NA
Location:  38.9362°N, 90.7728°W
Report Text: KSET 240354Z AUTO 20003KT 1/2SM FG VV003 10/10 A2924 RMK AO2 SLP898 T01000100
Loading
Personal Weather Stations






























Interactive Weather Map New forecast layout! Learn more

10-Day Weather Forecast

Advertisements
Track Severe Weather on mobile